Time;durP1;ratioP1;P1;durP2;ratioP2;P2;SDS_P1;SDS_P2;PMS_P1;PMS_P2;Temp;Humidity;BMP_temperature;BMP_pressure;BME280_temperature;BME280_humidity;BME280_pressure;Samples;Min_cycle;Max_cycle;Signal;HPM_P1;HPM_P2
2022/11/06 00:01:40;;;;;;;9.25;4.60;;;;;;;-5.82;70.96;97028.00;6166351;28;20042;-67
2022/11/06 00:04:44;;;;;;;15.70;6.80;;;;;;;-5.84;71.25;97034.81;6234714;28;20048;-67
2022/11/06 00:07:48;;;;;;;14.93;5.63;;;;;;;-5.91;71.06;97037.38;6273114;28;20318;-68
2022/11/06 00:10:50;;;;;;;8.52;5.10;;;;;;;-5.96;71.43;97031.41;6271998;28;20049;-67
2022/11/06 00:13:54;;;;;;;10.88;5.63;;;;;;;-5.98;71.07;97032.25;6273043;28;20425;-66
2022/11/06 00:17:00;;;;;;;10.90;5.13;;;;;;;-5.98;71.58;97033.13;6272117;28;20057;-66
2022/11/06 00:20:02;;;;;;;;;;;;;;;-6.01;71.46;97038.22;6271765;28;20442;-66
2022/11/06 00:23:05;;;;;;;11.07;5.03;;;;;;;-6.07;71.53;97033.09;6272215;28;20385;-67
2022/11/06 00:26:13;;;;;;;12.32;5.43;;;;;;;-6.13;71.68;97030.53;6288392;28;20045;-67
2022/11/06 00:29:15;;;;;;;8.65;5.28;;;;;;;-6.21;71.19;97025.38;6284817;28;20045;-67
2022/11/06 00:32:19;;;;;;;11.68;6.00;;;;;;;-6.30;71.96;97019.38;6285338;28;20142;-66
2022/11/06 00:35:22;;;;;;;7.72;4.35;;;;;;;-6.38;71.22;97027.88;6285923;28;20040;-66
2022/11/06 00:38:29;;;;;;;9.80;5.07;;;;;;;-6.50;71.56;97038.06;6288210;28;20041;-66
2022/11/06 00:41:30;;;;;;;8.73;4.75;;;;;;;-6.59;71.95;97040.59;6285734;28;20131;-67
2022/11/06 00:44:34;;;;;;;11.32;4.85;;;;;;;-6.65;71.67;97032.84;6268196;28;20154;-68
2022/11/06 00:47:37;;;;;;;6.43;4.60;;;;;;;-6.68;71.69;97045.63;6270148;28;20049;-67
2022/11/06 00:50:44;;;;;;;7.22;4.28;;;;;;;-6.74;72.01;97045.59;6273609;28;20041;-67
2022/11/06 00:53:46;;;;;;;7.95;4.35;;;;;;;-6.78;71.86;97047.28;6271443;28;20045;-67
2022/11/06 00:56:49;;;;;;;7.75;4.57;;;;;;;-6.77;72.69;97049.84;6273443;28;20087;-67
2022/11/06 00:59:57;;;;;;;7.63;4.60;;;;;;;-6.71;72.31;97053.28;6271670;28;20032;-67
2022/11/06 01:03:05;;;;;;;9.73;4.57;;;;;;;-6.77;72.17;97039.63;6262565;28;20776;-67
2022/11/06 01:06:13;;;;;;;8.65;4.65;;;;;;;-6.78;72.42;97045.59;6170194;28;20046;-66
2022/11/06 01:09:19;;;;;;;8.43;4.57;;;;;;;-6.71;72.13;97063.53;6176071;28;20398;-67
2022/11/06 01:12:22;;;;;;;9.00;4.50;;;;;;;-6.66;72.35;97060.16;6172357;28;20137;-67
2022/11/06 01:15:26;;;;;;;8.32;4.90;;;;;;;-6.60;72.02;97062.75;6173503;28;20129;-67
2022/11/06 01:18:30;;;;;;;7.38;4.20;;;;;;;-6.51;72.30;97051.72;6174524;28;20183;-67
2022/11/06 01:21:37;;;;;;;7.82;4.80;;;;;;;-6.36;72.70;97062.03;6195757;28;20149;-67
2022/11/06 01:24:39;;;;;;;14.27;7.40;;;;;;;-6.28;72.67;97073.97;6176905;28;20106;-67
2022/11/06 01:27:45;;;;;;;18.67;8.68;;;;;;;-6.32;71.98;97071.41;6175087;28;20125;-67
2022/11/06 01:30:46;;;;;;;37.42;15.88;;;;;;;-6.41;72.19;97073.09;6172911;28;20168;-66
2022/11/06 01:33:50;;;;;;;43.00;18.52;;;;;;;-6.52;72.15;97065.34;6171022;28;20046;-67
2022/11/06 01:36:52;;;;;;;39.55;16.63;;;;;;;-6.61;72.03;97067.88;6172762;28;20041;-66
2022/11/06 01:39:53;;;;;;;24.75;11.15;;;;;;;-6.67;71.60;97071.25;6172583;28;20184;-67
2022/11/06 01:42:54;;;;;;;20.38;9.50;;;;;;;-6.71;72.06;97073.75;6173919;28;20042;-67
2022/11/06 01:45:56;;;;;;;18.50;8.68;;;;;;;-6.76;71.69;97076.31;6172868;28;20069;-66
2022/11/06 01:49:03;;;;;;;15.20;7.75;;;;;;;-6.79;72.34;97071.19;6181853;28;20047;-68
2022/11/06 01:52:12;;;;;;;12.82;6.80;;;;;;;-6.80;71.97;97075.41;6188171;28;20424;-67
2022/11/06 01:55:21;;;;;;;10.32;5.97;;;;;;;-6.81;72.50;97072.88;6189751;28;20042;-67
2022/11/06 01:58:25;;;;;;;17.13;7.85;;;;;;;-6.81;71.83;97076.28;6192056;28;20354;-67
2022/11/06 02:01:28;;;;;;;13.65;6.40;;;;;;;-6.94;72.51;97058.28;6190724;28;20038;-67
2022/11/06 02:04:41;;;;;;;8.60;5.50;;;;;;;-6.85;71.95;97077.13;6184867;28;20544;-67
2022/11/06 02:07:43;;;;;;;13.63;6.03;;;;;;;-6.89;72.30;97070.25;6179189;28;20406;-67
2022/11/06 02:10:52;;;;;;;8.27;5.25;;;;;;;-6.88;72.42;97077.09;6181347;28;20039;-65
2022/11/06 02:14:23;;;;;;;9.93;5.43;;;;;;;-6.85;72.14;97072.00;6182124;28;20042;-67
2022/11/06 02:17:51;;;;;;;10.18;6.05;;;;;;;-6.86;71.88;97077.94;6177453;28;20043;-67
2022/11/06 02:21:19;;;;;;;19.23;6.85;;;;;;;-6.89;71.62;97077.06;6186105;28;20421;-67
2022/11/06 02:24:55;;;;;;;17.98;8.15;;;;;;;-7.09;71.97;97062.44;6161765;28;20095;-67
2022/11/06 02:28:08;;;;;;;14.70;6.85;;;;;;;-7.07;71.99;97081.22;6155961;28;20047;-65
2022/11/06 02:31:17;;;;;;;20.38;7.32;;;;;;;-7.13;71.53;97080.28;6156162;28;20046;-67
2022/11/06 02:34:23;;;;;;;18.42;7.60;;;;;;;-7.18;71.68;97092.22;6154619;28;20648;-68
2022/11/06 02:37:31;;;;;;;19.58;8.60;;;;;;;-7.21;71.25;97087.06;6159506;28;20100;-67
2022/11/06 02:40:42;;;;;;;20.15;8.77;;;;;;;-7.17;71.89;97088.81;6154667;28;20077;-67
2022/11/06 02:43:48;;;;;;;14.50;6.60;;;;;;;-7.10;71.13;97085.47;6236001;28;20043;-66
2022/11/06 02:46:55;;;;;;;12.00;6.22;;;;;;;-6.99;71.54;97088.97;6234279;28;20055;-67
2022/11/06 02:50:07;;;;;;;10.98;6.05;;;;;;;-6.79;71.65;97091.66;6156034;28;20479;-67
2022/11/06 02:53:11;;;;;;;9.80;5.82;;;;;;;-6.67;71.47;97088.31;6153913;28;20081;-67
2022/11/06 02:56:17;;;;;;;13.00;7.15;;;;;;;-6.65;71.47;97087.47;6156680;28;20047;-66
2022/11/06 02:59:28;;;;;;;9.77;5.63;;;;;;;-6.59;71.56;97084.09;6154884;28;21125;-66
2022/11/06 03:02:36;;;;;;;14.50;6.97;;;;;;;-6.51;71.87;97087.56;6156497;28;20050;-67
2022/11/06 03:06:10;;;;;;;11.95;6.60;;;;;;;-6.53;71.63;97084.13;6271150;28;20049;-66
2022/11/06 03:09:17;;;;;;;15.43;6.47;;;;;;;-6.54;71.14;97087.50;6272555;28;20534;-67
2022/11/06 03:12:32;;;;;;;16.50;7.03;;;;;;;-6.60;71.79;97092.59;6272379;28;20578;-66
2022/11/06 03:15:46;;;;;;;15.48;7.65;;;;;;;-6.67;71.17;97085.75;6275603;28;22135;-66
2022/11/06 03:19:11;;;;;;;15.93;8.25;;;;;;;-6.64;71.38;97090.88;6272894;28;20150;-67
2022/11/06 03:22:27;;;;;;;14.05;7.43;;;;;;;-6.55;70.99;97096.91;6274451;28;20044;-67
2022/11/06 03:25:42;;;;;;;19.83;9.60;;;;;;;-6.51;71.19;97102.91;6270433;28;20049;-67
2022/11/06 03:29:01;;;;;;;24.60;10.40;;;;;;;-6.53;70.71;97089.25;6277654;28;20151;-66
2022/11/06 03:32:19;;;;;;;30.52;10.93;;;;;;;-6.85;70.46;97056.66;6286122;28;20040;-66
2022/11/06 03:35:39;;;;;;;33.58;12.02;;;;;;;-6.46;70.75;97111.44;6278791;28;20040;-66
2022/11/06 03:38:45;;;;;;;24.48;11.60;;;;;;;-6.38;70.59;97114.91;6263823;28;20048;-66
2022/11/06 03:42:01;;;;;;;37.70;13.95;;;;;;;-6.25;69.81;97110.72;6277982;28;20385;-66
2022/11/06 03:45:09;;;;;;;22.40;9.52;;;;;;;-6.11;70.31;97128.72;6272992;28;20037;-67
2022/11/06 03:48:40;;;;;;;23.10;9.35;;;;;;;-5.99;69.31;97117.66;6259662;28;20404;-67
2022/11/06 03:51:56;;;;;;;13.93;7.40;;;;;;;-5.90;69.51;97112.53;6267298;28;20508;-67
2022/11/06 03:55:04;;;;;;;14.85;7.07;;;;;;;-5.65;69.50;97123.72;6274856;28;20052;-67
2022/11/06 03:58:16;;;;;;;11.02;5.97;;;;;;;-5.43;69.50;97124.66;6277332;28;20092;-67
2022/11/06 04:01:23;;;;;;;10.60;6.50;;;;;;;-5.21;68.89;97125.50;6280767;28;20051;-67
2022/11/06 04:04:33;;;;;;;15.18;7.15;;;;;;;-5.00;68.64;97130.66;6216534;28;20098;-67
2022/11/06 04:07:40;;;;;;;12.40;6.85;;;;;;;-4.83;68.48;97129.81;6163863;28;20052;-67
2022/11/06 04:14:12;;;;;;;12.07;7.03;;;;;;;-4.44;68.47;97146.91;6164913;28;20042;-67
2022/11/06 04:17:22;;;;;;;13.48;7.20;;;;;;;-4.32;68.04;97131.47;6161699;28;20078;-68
2022/11/06 04:27:57;;;;;;;13.93;6.93;;;;;;;-3.83;67.19;97148.44;6164853;28;20189;-67
2022/11/06 04:31:11;;;;;;;15.63;7.85;;;;;;;-3.70;66.77;97141.53;6168825;28;20114;-67
2022/11/06 04:34:20;;;;;;;15.25;8.05;;;;;;;-3.57;66.61;97142.31;6160094;28;21487;-67
2022/11/06 04:37:31;;;;;;;27.70;14.52;;;;;;;-3.45;66.16;97142.28;6160972;28;20047;-66
2022/11/06 04:40:37;;;;;;;17.60;8.75;;;;;;;-3.33;66.13;97143.94;6160141;28;20069;-66
2022/11/06 04:43:49;;;;;;;13.77;7.43;;;;;;;-3.22;66.10;97153.28;6170337;28;20050;-67
2022/11/06 04:47:00;;;;;;;12.98;7.28;;;;;;;-3.16;65.78;97142.94;6171773;28;20051;-66
2022/11/06 04:50:04;;;;;;;13.40;6.75;;;;;;;-2.93;65.73;97162.53;6168182;28;20525;-67
2022/11/06 04:53:08;;;;;;;;;;;;;;;-2.75;65.76;97166.69;6168612;28;20050;-67
2022/11/06 04:56:12;;;;;;;9.55;5.50;;;;;;;-2.68;65.40;97167.50;6165305;28;20063;-66
2022/11/06 04:59:20;;;;;;;9.13;5.30;;;;;;;-2.80;65.06;97138.41;6166739;28;20116;-66
2022/11/06 05:02:23;;;;;;;9.23;5.05;;;;;;;-2.47;65.01;97166.47;6162823;28;20043;-67
2022/11/06 05:05:28;;;;;;;6.93;4.80;;;;;;;-2.29;64.62;97172.31;6157446;28;20055;-67
2022/11/06 05:08:32;;;;;;;6.88;4.30;;;;;;;-2.02;63.79;97175.47;6153292;28;20051;-66
2022/11/06 05:11:39;;;;;;;8.43;4.32;;;;;;;-1.61;63.65;97172.44;6155486;28;20176;-67
2022/11/06 05:14:45;;;;;;;7.38;4.50;;;;;;;-0.98;62.36;97174.19;6153482;28;20042;-66
2022/11/06 05:17:47;;;;;;;11.10;4.95;;;;;;;0.17;60.56;97180.06;6156779;28;20042;-67
2022/11/06 05:22:56;;;;;;;9.32;4.85;;;;;;;1.55;58.52;97176.22;6158974;28;20047;-67
2022/11/06 05:24:10;;;;;;;10.70;4.50;;;;;;;2.85;55.11;97184.88;6158368;28;20437;-68
2022/11/06 05:27:11;;;;;;;11.05;5.03;;;;;;;4.31;52.39;97173.25;6161899;28;20054;-69
2022/11/06 05:30:18;;;;;;;9.55;5.18;;;;;;;6.30;48.14;97183.78;6158366;28;20038;-67
2022/11/06 05:33:22;;;;;;;9.63;5.85;;;;;;;8.14;42.67;97186.63;6154219;28;20051;-68
2022/11/06 05:36:24;;;;;;;7.72;5.07;;;;;;;10.04;39.85;97184.31;6155272;28;20038;-68
2022/11/06 05:39:25;;;;;;;7.53;4.80;;;;;;;11.45;37.66;97183.69;6160163;28;20041;-67
2022/11/06 05:42:29;;;;;;;6.85;4.78;;;;;;;12.26;35.29;97180.25;6140794;28;20042;-68
2022/11/06 05:45:33;;;;;;;8.02;5.15;;;;;;;12.16;36.32;97184.44;6154787;28;20051;-67
2022/11/06 05:48:37;;;;;;;7.25;4.70;;;;;;;12.17;36.01;97180.84;6151230;28;20042;-69
2022/11/06 05:51:42;;;;;;;6.28;4.53;;;;;;;12.42;35.09;97174.75;6155945;28;20042;-68
2022/11/06 05:54:48;;;;;;;7.88;4.15;;;;;;;12.19;34.48;97184.22;6156311;28;20047;-66
2022/11/06 05:57:52;;;;;;;6.38;3.55;;;;;;;11.96;35.29;97189.22;6169959;28;20099;-68
2022/11/06 06:00:59;;;;;;;8.00;3.58;;;;;;;11.88;35.02;97188.88;6153802;28;20604;-70
2022/11/06 06:04:03;;;;;;;5.22;3.53;;;;;;;11.78;34.85;97185.97;6202411;28;20053;-67
2022/11/06 06:07:05;;;;;;;5.97;2.90;;;;;;;11.72;34.71;97185.50;6280470;28;20052;-67
2022/11/06 06:10:07;;;;;;;4.43;2.83;;;;;;;11.62;34.43;97191.38;6275470;28;20048;-67
2022/11/06 06:13:09;;;;;;;4.32;2.92;;;;;;;12.38;33.25;97183.84;6273859;28;20049;-67
2022/11/06 06:16:14;;;;;;;8.30;3.13;;;;;;;13.89;30.90;97186.44;6272706;28;20044;-68
2022/11/06 06:19:16;;;;;;;8.13;3.40;;;;;;;16.43;27.80;97185.22;6274667;28;20705;-66
2022/11/06 06:22:18;;;;;;;7.78;3.63;;;;;;;18.49;25.29;97194.72;6272739;28;20051;-66
2022/11/06 06:25:22;;;;;;;5.95;4.32;;;;;;;19.58;23.49;97198.66;6278090;28;20112;-67
2022/11/06 06:28:23;;;;;;;;;;;;;;;20.84;25.43;97202.34;6284390;28;20041;-67
2022/11/06 06:31:27;;;;;;;4.32;2.92;;;;;;;20.23;23.74;97193.25;6286696;28;20022;-68
2022/11/06 06:34:31;;;;;;;4.15;2.28;;;;;;;21.08;21.87;97194.47;6285697;28;20280;-68
2022/11/06 06:37:35;;;;;;;3.28;2.38;;;;;;;22.67;20.37;97201.94;6280217;28;21047;-67
2022/11/06 06:40:39;;;;;;;2.40;2.20;;;;;;;24.03;19.08;97210.06;6267934;28;20483;-66
2022/11/06 06:43:46;;;;;;;4.40;2.88;;;;;;;24.97;18.02;97214.31;6262121;28;20036;-67
2022/11/06 06:46:51;;;;;;;3.22;2.28;;;;;;;25.33;17.63;97202.88;6274037;28;20055;-67
2022/11/06 06:49:52;;;;;;;2.45;1.85;;;;;;;24.78;17.85;97212.13;6275363;28;20578;-67
2022/11/06 06:52:57;;;;;;;2.92;2.10;;;;;;;23.99;18.16;97206.88;6279602;28;20084;-67
2022/11/06 06:56:01;;;;;;;2.33;2.03;;;;;;;23.40;18.27;97201.88;6275883;28;20040;-67
2022/11/06 06:59:06;;;;;;;3.42;1.90;;;;;;;23.07;18.64;97210.00;6274304;28;20041;-67
2022/11/06 07:02:10;;;;;;;2.20;1.80;;;;;;;23.02;18.53;97211.50;6274772;28;20036;-67
2022/11/06 07:05:11;;;;;;;2.80;2.13;;;;;;;23.37;17.95;97210.25;6181265;28;20433;-68
2022/11/06 07:08:17;;;;;;;2.08;1.73;;;;;;;23.52;16.97;97215.75;6155615;28;20046;-67
2022/11/06 07:11:22;;;;;;;2.13;1.50;;;;;;;23.95;16.99;97209.09;6157344;28;20039;-67
2022/11/06 07:14:24;;;;;;;3.78;2.03;;;;;;;24.71;16.55;97213.84;6155188;28;20413;-68
2022/11/06 07:17:29;;;;;;;3.08;1.95;;;;;;;25.62;15.57;97211.97;6166093;28;20043;-67
2022/11/06 07:20:34;;;;;;;1.85;1.60;;;;;;;26.82;14.83;97220.50;6160962;28;20145;-68
2022/11/06 07:23:38;;;;;;;2.47;1.73;;;;;;;27.89;14.10;97232.16;6155381;28;20188;-67
2022/11/06 07:26:42;;;;;;;2.85;2.00;;;;;;;27.52;13.46;97220.69;6159514;28;20059;-67
2022/11/06 07:29:47;;;;;;;2.55;1.80;;;;;;;27.99;13.71;97210.97;6187472;28;20048;-68
2022/11/06 07:32:53;;;;;;;1.88;1.70;;;;;;;28.53;13.05;97218.25;6160129;28;20039;-67
2022/11/06 07:35:55;;;;;;;2.40;1.67;;;;;;;28.20;13.04;97218.97;6160307;28;20691;-67
2022/11/06 07:38:59;;;;;;;3.78;2.97;;;;;;;27.85;13.31;97215.47;6160311;28;20171;-67
2022/11/06 07:42:00;;;;;;;2.70;2.00;;;;;;;28.27;12.96;97212.72;6159756;28;20084;-69
2022/11/06 07:45:05;;;;;;;1.73;1.33;;;;;;;28.34;12.56;97213.59;6163713;28;20042;-69
2022/11/06 07:48:06;;;;;;;1.63;1.40;;;;;;;28.41;13.08;97209.03;6165433;28;20511;-69
2022/11/06 07:51:10;;;;;;;3.80;1.70;;;;;;;28.13;12.73;97207.25;6160609;28;20477;-69
2022/11/06 07:54:14;;;;;;;1.85;1.20;;;;;;;28.52;12.55;97211.16;6162335;28;20043;-68
2022/11/06 07:57:18;;;;;;;1.67;1.58;;;;;;;28.55;12.12;97204.50;6159817;28;20512;-69
2022/11/06 08:00:20;;;;;;;1.55;1.45;;;;;;;29.04;12.05;97203.34;6160981;28;20050;-68
2022/11/06 08:03:25;;;;;;;2.35;1.67;;;;;;;29.38;11.52;97204.97;6166651;28;20302;-70
2022/11/06 08:06:29;;;;;;;2.78;1.70;;;;;;;28.54;12.21;97206.41;6159830;28;20395;-71
2022/11/06 08:09:33;;;;;;;2.05;1.65;;;;;;;28.41;12.32;97200.91;6169253;28;20502;-69
2022/11/06 08:12:42;;;;;;;2.03;1.48;;;;;;;28.37;11.91;97202.38;6170450;28;20051;-70
2022/11/06 08:15:43;;;;;;;1.85;1.42;;;;;;;27.99;11.84;97200.13;6164044;28;20057;-68
2022/11/06 08:18:45;;;;;;;2.30;1.38;;;;;;;27.65;12.24;97188.28;6165495;28;20047;-69
2022/11/06 08:21:52;;;;;;;1.70;1.60;;;;;;;27.09;12.47;97188.31;6162481;28;20533;-69
2022/11/06 08:24:56;;;;;;;2.45;1.98;;;;;;;27.53;12.45;97188.03;6196615;28;20133;-71
2022/11/06 08:28:01;;;;;;;1.95;1.48;;;;;;;24.45;13.97;97188.13;6163365;28;20726;-68
2022/11/06 08:31:06;;;;;;;2.33;1.50;;;;;;;20.37;17.08;97167.81;6164237;28;20046;-70
2022/11/06 08:34:08;;;;;;;1.67;1.58;;;;;;;19.05;18.14;97165.47;6174989;28;20046;-69
2022/11/06 08:37:13;;;;;;;2.88;2.00;;;;;;;17.03;19.98;97163.25;6166797;28;20405;-69
2022/11/06 08:40:15;;;;;;;2.22;1.98;;;;;;;17.72;19.72;97162.53;6162937;28;20051;-69
2022/11/06 08:43:26;;;;;;;2.58;2.13;;;;;;;18.82;18.44;97158.78;6162128;28;20043;-69
2022/11/06 08:46:27;;;;;;;2.28;2.03;;;;;;;17.34;20.09;97159.75;6170184;28;20046;-70
2022/11/06 08:49:31;;;;;;;3.30;2.72;;;;;;;16.31;21.30;97156.06;6163229;28;20047;-69
2022/11/06 08:52:35;;;;;;;4.05;2.47;;;;;;;14.95;22.76;97159.09;6162029;28;20136;-69
2022/11/06 08:55:42;;;;;;;5.72;3.97;;;;;;;17.33;20.99;97158.06;6164446;28;20039;-69
2022/11/06 08:58:50;;;;;;;3.65;3.03;;;;;;;18.40;19.63;97157.28;6162069;28;20448;-71
2022/11/06 09:01:55;;;;;;;4.25;2.72;;;;;;;16.44;21.11;97155.03;6161674;28;20437;-69
2022/11/06 09:04:56;;;;;;;4.00;2.80;;;;;;;16.92;20.99;97158.00;6163298;28;20043;-70
2022/11/06 09:07:58;;;;;;;3.38;2.95;;;;;;;16.82;20.83;97143.84;6163911;28;20059;-71
2022/11/06 09:11:09;;;;;;;3.75;3.00;;;;;;;14.56;23.18;97153.28;6168275;28;20410;-71
2022/11/06 09:14:17;;;;;;;4.63;2.83;;;;;;;12.57;25.59;97158.75;6165337;28;20188;-71
2022/11/06 09:17:22;;;;;;;4.13;3.45;;;;;;;10.76;27.96;97149.34;6165304;28;20047;-70
2022/11/06 09:20:28;;;;;;;4.43;3.53;;;;;;;8.85;30.58;97148.00;6170734;28;20422;-70
2022/11/06 09:23:33;;;;;;;11.13;4.90;;;;;;;7.32;32.89;97151.28;6167865;28;21448;-70
2022/11/06 09:26:34;;;;;;;6.93;4.70;;;;;;;6.34;34.97;97149.66;6167647;28;20528;-69
2022/11/06 09:29:39;;;;;;;8.18;4.80;;;;;;;5.72;36.07;97148.75;6164482;28;20498;-69
2022/11/06 09:33:02;;;;;;;10.43;4.90;;;;;;;5.36;36.88;97165.00;6165521;28;20047;-69
2022/11/06 09:36:05;;;;;;;5.15;3.83;;;;;;;4.91;38.41;97164.09;6165988;28;20054;-70
2022/11/06 09:39:06;;;;;;;4.72;3.35;;;;;;;4.39;39.19;97166.03;6164058;28;20051;-70
2022/11/06 09:42:44;;;;;;;4.32;3.60;;;;;;;3.97;40.09;97174.41;6158047;28;20045;-70
2022/11/06 09:45:48;;;;;;;4.63;3.35;;;;;;;3.50;41.22;97174.22;6156219;28;20215;-71
2022/11/06 09:49:27;;;;;;;5.15;3.40;;;;;;;3.09;42.30;97168.56;6154444;28;20179;-70
2022/11/06 09:52:38;;;;;;;5.35;3.72;;;;;;;3.01;42.65;97162.75;6154270;28;20146;-69
2022/11/06 09:55:42;;;;;;;5.43;4.00;;;;;;;3.18;42.77;97164.81;6159319;28;20141;-69
2022/11/06 09:58:49;;;;;;;4.32;3.22;;;;;;;3.35;42.43;97165.16;6160827;28;20049;-69
2022/11/06 10:01:56;;;;;;;6.18;4.32;;;;;;;3.26;42.73;97151.59;6154397;28;20047;-69
2022/11/06 10:05:10;;;;;;;5.68;4.32;;;;;;;3.30;42.69;97176.59;6170641;28;20145;-69
2022/11/06 10:08:41;;;;;;;4.30;3.40;;;;;;;3.08;42.81;97172.03;6174955;28;21652;-71
2022/11/06 10:11:56;;;;;;;4.72;3.40;;;;;;;2.88;43.52;97174.38;6181698;28;20050;-71
2022/11/06 10:15:15;;;;;;;5.35;2.75;;;;;;;2.57;43.99;97167.47;6174953;28;20046;-69
2022/11/06 10:18:29;;;;;;;4.60;2.83;;;;;;;2.41;44.81;97180.06;6180030;28;20050;-71
2022/11/06 10:22:09;;;;;;;5.13;3.37;;;;;;;2.08;45.14;97176.63;6176061;28;20381;-70
2022/11/06 10:25:49;;;;;;;3.13;2.53;;;;;;;1.84;45.73;97177.25;6171288;28;20901;-69
2022/11/06 10:29:10;;;;;;;3.75;2.63;;;;;;;1.74;46.06;97164.50;6156721;28;20428;-70
2022/11/06 10:32:56;;;;;;;5.35;3.63;;;;;;;1.76;45.89;97178.31;6178221;28;20061;-69
2022/11/06 10:36:21;;;;;;;3.67;2.67;;;;;;;1.68;46.44;97182.81;6159100;28;20424;-69
2022/11/06 10:39:31;;;;;;;3.45;2.70;;;;;;;1.57;45.99;97179.63;6177640;28;20042;-71
2022/11/06 10:42:40;;;;;;;3.13;2.25;;;;;;;1.54;45.98;97184.91;6185413;28;20183;-72
2022/11/06 10:45:46;;;;;;;2.35;2.10;;;;;;;1.38;46.68;97183.56;6185560;28;20049;-70
2022/11/06 10:49:00;;;;;;;5.22;2.85;;;;;;;1.37;46.27;97185.31;6199967;28;20056;-72
2022/11/06 10:52:10;;;;;;;2.75;2.10;;;;;;;1.33;46.38;97194.91;6191611;28;20528;-71
2022/11/06 10:55:14;;;;;;;3.05;2.33;;;;;;;1.27;47.01;97188.97;6186451;28;20580;-71
2022/11/06 10:58:17;;;;;;;;;;;;;;;1.19;46.49;97184.00;6196406;28;20053;-71
2022/11/06 11:01:22;;;;;;;2.30;1.80;;;;;;;1.06;46.75;97179.97;6195769;28;20067;-72
2022/11/06 11:04:31;;;;;;;3.60;1.88;;;;;;;1.08;47.21;97180.78;6192548;28;20507;-71
2022/11/06 11:07:35;;;;;;;2.05;1.75;;;;;;;0.99;47.07;97179.25;6192977;28;20449;-70
2022/11/06 11:10:36;;;;;;;3.08;2.20;;;;;;;0.93;47.22;97181.97;6195099;28;20046;-71
2022/11/06 11:13:42;;;;;;;3.50;1.70;;;;;;;0.89;47.73;97178.59;6163635;28;20046;-70
2022/11/06 11:16:51;;;;;;;2.95;1.20;;;;;;;0.92;47.38;97169.06;6157900;28;20035;-71
2022/11/06 11:19:56;;;;;;;3.72;1.60;;;;;;;0.88;47.65;97179.47;6159705;28;20049;-72
2022/11/06 11:23:21;;;;;;;4.20;2.08;;;;;;;0.84;47.54;97183.00;6156346;28;20141;-71
2022/11/06 11:26:29;;;;;;;4.30;2.33;;;;;;;0.70;48.09;97172.09;6158177;28;20058;-70
2022/11/06 11:29:49;;;;;;;5.15;2.25;;;;;;;0.73;48.09;97187.56;6152441;28;20422;-71
2022/11/06 11:32:56;;;;;;;3.28;2.30;;;;;;;0.69;48.34;97180.75;6151174;28;20086;-71
2022/11/06 11:35:58;;;;;;;5.28;2.28;;;;;;;0.64;48.40;97180.00;6153581;28;20438;-70
2022/11/06 11:39:00;;;;;;;4.22;2.53;;;;;;;0.65;48.69;97186.88;6156718;28;20050;-70
2022/11/06 11:42:22;;;;;;;9.75;3.83;;;;;;;0.65;48.98;97194.63;6153388;28;20414;-71
2022/11/06 11:45:24;;;;;;;5.47;2.50;;;;;;;0.58;48.69;97190.47;6150178;28;20060;-71
2022/11/06 11:48:56;;;;;;;5.78;2.67;;;;;;;0.61;48.79;97193.00;6150948;28;20054;-71
2022/11/06 11:52:04;;;;;;;4.13;2.05;;;;;;;0.55;48.86;97190.53;6155834;28;20051;-71
2022/11/06 11:55:17;;;;;;;3.72;2.03;;;;;;;0.47;49.65;97202.78;6154995;28;20042;-71
2022/11/06 11:58:29;;;;;;;4.43;1.95;;;;;;;0.31;49.63;97192.75;6153019;28;20769;-73
2022/11/06 12:01:40;;;;;;;3.40;1.55;;;;;;;0.33;49.77;97198.72;6152340;28;20529;-71
2022/11/06 12:04:46;;;;;;;3.53;1.85;;;;;;;0.33;49.18;97198.72;6175526;28;20785;-69
2022/11/06 12:07:57;;;;;;;5.60;2.47;;;;;;;0.34;49.43;97203.03;6188502;28;20073;-71
2022/11/06 12:11:06;;;;;;;8.35;4.05;;;;;;;0.30;49.60;97198.78;6194539;28;20504;-69
2022/11/06 12:14:31;;;;;;;7.70;4.38;;;;;;;0.26;49.71;97191.97;6197151;28;20042;-70
2022/11/06 12:17:38;;;;;;;5.68;3.92;;;;;;;0.15;50.22;97187.00;6196129;28;20050;-70
2022/11/06 12:21:03;;;;;;;3.45;2.70;;;;;;;0.10;50.50;97203.47;6195588;28;21306;-72
2022/11/06 12:24:19;;;;;;;5.57;2.47;;;;;;;0.01;50.10;97193.31;6189856;28;20096;-71
2022/11/06 12:27:34;;;;;;;3.38;2.08;;;;;;;-0.03;50.09;97193.34;6188657;28;20053;-71
2022/11/06 12:30:38;;;;;;;4.80;2.55;;;;;;;-0.03;49.51;97210.59;6206334;28;20062;-70
2022/11/06 12:33:40;;;;;;;3.45;2.17;;;;;;;-0.05;49.91;97213.22;6192511;28;20057;-70
2022/11/06 12:36:57;;;;;;;5.57;2.30;;;;;;;-0.13;49.65;97207.31;6196845;28;20444;-70
2022/11/06 12:40:17;;;;;;;2.90;1.92;;;;;;;-0.20;49.94;97205.69;6193115;28;20061;-71
2022/11/06 12:43:43;;;;;;;2.65;1.70;;;;;;;-0.14;49.79;97209.91;6191485;28;20156;-72
2022/11/06 12:47:12;;;;;;;3.15;1.90;;;;;;;-0.14;49.82;97205.63;6197587;28;20050;-71
2022/11/06 12:50:42;;;;;;;2.92;1.90;;;;;;;-0.25;50.30;97208.38;6186573;28;20065;-71
2022/11/06 12:53:58;;;;;;;4.25;1.63;;;;;;;-0.33;50.57;97205.06;6192377;28;20073;-71
2022/11/06 12:57:41;;;;;;;3.50;1.83;;;;;;;-0.37;50.29;97211.16;6204470;28;20038;-71
2022/11/06 13:00:56;;;;;;;6.10;2.10;;;;;;;-0.38;51.11;97214.63;6185927;28;20398;-71
2022/11/06 13:04:03;;;;;;;5.32;2.42;;;;;;;-0.39;50.53;97207.75;6166871;28;20457;-70
2022/11/06 13:07:11;;;;;;;5.53;2.58;;;;;;;-0.39;51.18;97212.09;6156003;28;20420;-72
2022/11/06 13:10:21;;;;;;;6.57;3.47;;;;;;;-0.41;51.24;97204.34;6160144;28;20043;-73
2022/11/06 13:13:35;;;;;;;6.20;3.60;;;;;;;-0.34;51.89;97210.25;6226836;28;20462;-69
2022/11/06 13:16:59;;;;;;;18.60;7.88;;;;;;;-0.33;51.23;97211.97;6158634;28;20040;-72
2022/11/06 13:20:12;;;;;;;22.13;9.82;;;;;;;-0.32;51.42;97208.50;6158104;28;20109;-69
2022/11/06 13:23:25;;;;;;;26.58;12.45;;;;;;;-0.30;51.83;97219.69;6154652;28;20055;-67
2022/11/06 13:26:46;;;;;;;23.80;10.48;;;;;;;-0.32;52.35;97221.44;6155375;28;20043;-68
2022/11/06 13:29:49;;;;;;;24.50;11.77;;;;;;;-0.38;52.60;97226.72;6156435;28;20039;-69
2022/11/06 13:33:00;;;;;;;19.67;9.20;;;;;;;-0.49;52.43;97225.13;6156061;28;20051;-68
2022/11/06 13:36:04;;;;;;;14.88;6.10;;;;;;;-0.60;52.33;97227.03;6157017;28;20035;-69
2022/11/06 13:39:16;;;;;;;6.50;3.95;;;;;;;-0.65;53.19;97218.50;6152746;28;20191;-69
2022/11/06 13:42:31;;;;;;;4.20;2.53;;;;;;;-0.75;53.35;97232.44;6155548;28;20054;-69
2022/11/06 13:45:53;;;;;;;4.75;2.60;;;;;;;-0.99;54.02;97229.31;6150050;28;20528;-69
2022/11/06 13:49:02;;;;;;;3.85;2.15;;;;;;;-1.17;54.61;97229.56;6151768;28;20059;-69
2022/11/06 13:52:33;;;;;;;6.90;3.22;;;;;;;-1.25;55.24;97245.13;6149914;28;20051;-69
2022/11/06 13:56:04;;;;;;;7.20;3.13;;;;;;;-1.27;54.89;97243.47;6151880;28;20129;-69
2022/11/06 13:59:44;;;;;;;6.00;3.30;;;;;;;-1.32;55.07;97240.94;6154466;28;20054;-69
2022/11/06 14:03:23;;;;;;;6.45;2.90;;;;;;;-1.28;54.64;97241.75;6160893;28;20529;-68
2022/11/06 14:06:29;;;;;;;4.68;2.83;;;;;;;-1.36;54.72;97236.66;6283091;28;20523;-70
2022/11/06 14:09:40;;;;;;;8.73;3.75;;;;;;;-1.39;55.19;97245.31;6285776;28;20051;-69
2022/11/06 14:12:47;;;;;;;11.50;3.97;;;;;;;-1.41;54.95;97241.91;6286970;28;20035;-69
2022/11/06 14:16:18;;;;;;;5.68;3.83;;;;;;;-1.39;55.17;97232.41;6284504;28;20040;-70
2022/11/06 14:19:28;;;;;;;8.75;4.07;;;;;;;-1.33;55.51;97248.69;6277860;28;20040;-69
2022/11/06 14:22:35;;;;;;;6.20;3.38;;;;;;;-1.32;54.79;97245.25;6283135;28;20052;-69
2022/11/06 14:25:39;;;;;;;7.32;4.25;;;;;;;-1.31;55.29;97252.94;6286272;28;20060;-68
2022/11/06 14:28:43;;;;;;;11.40;4.25;;;;;;;-1.28;55.10;97250.34;6283680;28;20099;-69
2022/11/06 14:32:09;;;;;;;6.93;3.90;;;;;;;-1.28;54.81;97257.22;6283182;28;20997;-68
2022/11/06 14:35:32;;;;;;;8.85;4.53;;;;;;;-1.32;55.54;97264.16;6293618;28;20048;-68
2022/11/06 14:38:36;;;;;;;11.90;5.05;;;;;;;-1.43;55.83;97259.13;6287303;28;20166;-69
2022/11/06 14:41:38;;;;;;;11.48;5.18;;;;;;;-1.38;56.22;97261.66;6303031;28;20047;-69
2022/11/06 14:44:46;;;;;;;10.45;5.88;;;;;;;-1.38;56.11;97262.50;6303032;28;20038;-68
2022/11/06 14:47:48;;;;;;;29.65;14.18;;;;;;;-1.44;55.62;97265.16;6300325;28;20040;-68
2022/11/06 14:50:51;;;;;;;25.95;11.18;;;;;;;-1.53;56.50;97261.81;6302943;28;20073;-68
2022/11/06 14:53:58;;;;;;;27.30;11.35;;;;;;;-1.65;56.92;97261.06;6301259;28;20131;-68
2022/11/06 14:57:07;;;;;;;18.85;8.95;;;;;;;-1.77;57.05;97273.25;6302465;28;20041;-69
2022/11/06 15:00:31;;;;;;;17.15;8.93;;;;;;;-2.01;57.27;97262.28;6302053;28;20041;-69
2022/11/06 15:03:49;;;;;;;19.08;7.30;;;;;;;-2.22;57.83;97257.31;6280129;28;20050;-70